createdAt,value
2022-11-24T00:00:31.352Z,19.17
2022-11-24T00:05:38.326Z,18.45
2022-11-24T00:10:39.787Z,19.00
2022-11-24T00:15:41.236Z,19.63
2022-11-24T00:20:42.682Z,22.27
2022-11-24T00:25:44.134Z,20.95
2022-11-24T00:30:45.679Z,18.08
2022-11-24T00:35:54.613Z,19.85
2022-11-24T00:40:56.111Z,22.95
2022-11-24T00:45:57.687Z,21.08
2022-11-24T00:51:00.990Z,22.83
2022-11-24T00:56:03.938Z,24.83
2022-11-24T01:01:07.498Z,17.95
2022-11-24T01:06:13.463Z,20.83
2022-11-24T01:11:19.398Z,26.30
2022-11-24T01:16:31.862Z,26.42
2022-11-24T01:21:33.327Z,21.92
2022-11-24T01:26:34.779Z,24.05
2022-11-24T01:31:37.015Z,24.73
2022-11-24T01:36:38.514Z,26.77
2022-11-24T01:41:40.030Z,26.60
2022-11-24T01:46:44.816Z,22.92
2022-11-24T01:52:19.949Z,21.25
2022-11-24T01:57:29.621Z,26.27
2022-11-24T02:02:31.084Z,19.92
2022-11-24T02:07:32.610Z,24.73
2022-11-24T02:12:34.126Z,22.50
2022-11-24T02:17:35.672Z,24.60
2022-11-24T02:23:03.670Z,20.63
2022-11-24T02:28:07.270Z,20.35
2022-11-24T02:33:09.930Z,21.38
2022-11-24T02:38:12.818Z,27.05
2022-11-24T02:43:16.490Z,28.10
2022-11-24T02:48:17.965Z,24.10
2022-11-24T02:53:19.426Z,26.10
2022-11-24T02:58:20.939Z,19.83
2022-11-24T03:03:22.437Z,25.35
2022-11-24T03:08:23.898Z,22.40
2022-11-24T03:13:25.358Z,31.83
2022-11-24T03:18:26.806Z,27.73
2022-11-24T03:23:28.272Z,25.30
2022-11-24T03:28:29.722Z,23.23
2022-11-24T03:33:31.174Z,20.20
2022-11-24T03:38:32.683Z,25.30
2022-11-24T03:43:35.913Z,22.98
2022-11-24T03:48:40.626Z,29.83
2022-11-24T03:53:42.084Z,21.58
2022-11-24T03:58:43.536Z,19.55
2022-11-24T04:03:44.984Z,22.30
2022-11-24T04:08:46.444Z,21.73
2022-11-24T04:13:47.921Z,21.92
2022-11-24T04:18:52.249Z,20.95
2022-11-24T04:23:53.702Z,25.73
2022-11-24T04:28:55.160Z,18.10
2022-11-24T04:33:56.624Z,18.00
2022-11-24T04:39:23.122Z,21.88
2022-11-24T04:44:19.520Z,16.88
2022-11-24T04:49:20.972Z,16.63
2022-11-24T04:54:22.426Z,24.67
2022-11-24T04:59:23.880Z,19.00
2022-11-24T05:04:25.362Z,21.15
2022-11-24T05:09:48.000Z,17.88
2022-11-24T05:14:48.292Z,13.88
2022-11-24T05:19:49.760Z,15.85
2022-11-24T05:24:51.212Z,20.65
2022-11-24T05:29:52.695Z,18.73
2022-11-24T05:34:54.618Z,18.45
2022-11-24T05:39:56.076Z,18.20
2022-11-24T05:44:59.540Z,15.85
2022-11-24T05:50:01.012Z,20.58
2022-11-24T05:55:02.513Z,18.70
2022-11-24T06:00:05.700Z,18.88
2022-11-24T06:05:07.407Z,27.73
2022-11-24T06:10:09.150Z,15.23
2022-11-24T06:15:11.203Z,18.00
2022-11-24T06:20:12.704Z,28.85
2022-11-24T06:25:14.358Z,20.95
2022-11-24T06:30:15.824Z,16.08
2022-11-24T06:35:17.409Z,22.83
2022-11-24T06:40:18.899Z,20.08
2022-11-24T06:45:20.440Z,20.80
2022-11-24T06:50:22.553Z,20.20
2022-11-24T06:55:24.002Z,23.80
2022-11-24T07:00:25.537Z,19.98
2022-11-24T07:05:27.201Z,22.55
2022-11-24T07:10:28.728Z,12.73
2022-11-24T07:15:30.517Z,12.43
2022-11-24T07:20:32.014Z,12.40
2022-11-24T07:25:33.600Z,15.88
2022-11-24T07:30:35.060Z,16.05
2022-11-24T07:35:36.532Z,17.85
2022-11-24T07:40:37.983Z,13.75
2022-11-24T07:45:39.529Z,16.95
2022-11-24T07:50:41.021Z,13.65
2022-11-24T07:55:42.494Z,15.95
2022-11-24T08:00:43.959Z,13.45
2022-11-24T08:11:18.158Z,15.55
2022-11-24T08:16:19.740Z,16.45
2022-11-24T08:21:23.084Z,13.98
2022-11-24T08:26:25.103Z,16.42
2022-11-24T08:31:32.711Z,12.20
2022-11-24T08:36:35.177Z,16.52
2022-11-24T08:41:36.676Z,15.32
2022-11-24T08:46:38.250Z,16.60
2022-11-24T08:51:39.780Z,13.30
2022-11-24T08:56:41.264Z,14.60
2022-11-24T09:01:42.954Z,15.63
2022-11-24T09:06:44.499Z,11.43
2022-11-24T09:11:45.959Z,17.25
2022-11-24T09:16:47.502Z,18.33
2022-11-24T09:21:48.994Z,17.25
2022-11-24T09:26:50.471Z,13.68
2022-11-24T09:31:51.928Z,14.55
2022-11-24T09:36:53.384Z,19.23
2022-11-24T09:42:00.040Z,16.65
2022-11-24T09:47:18.949Z,18.52
2022-11-24T09:52:37.887Z,13.40
2022-11-24T09:57:39.336Z,18.35
2022-11-24T10:02:40.808Z,12.73
2022-11-24T10:07:45.351Z,13.40
2022-11-24T10:13:09.832Z,18.15
2022-11-24T10:18:33.150Z,15.95
2022-11-24T10:23:50.433Z,12.68
2022-11-24T10:28:54.148Z,13.07
2022-11-24T10:33:56.871Z,16.27
2022-11-24T10:44:13.901Z,19.17
2022-11-24T10:49:24.971Z,11.25
2022-11-24T10:54:26.436Z,11.18
2022-11-24T10:59:33.630Z,13.95
2022-11-24T11:04:35.477Z,14.27
2022-11-24T11:09:37.093Z,16.35
2022-11-24T11:14:38.848Z,15.43
2022-11-24T11:19:50.373Z,13.27
2022-11-24T11:25:19.336Z,15.20
2022-11-24T11:35:44.875Z,15.52
2022-11-24T11:40:46.328Z,19.83
2022-11-24T11:45:47.823Z,15.70
2022-11-24T11:56:20.593Z,12.70
2022-11-24T12:01:54.353Z,20.15
2022-11-24T12:07:07.618Z,14.75
2022-11-24T12:12:29.511Z,18.45
2022-11-24T12:17:52.645Z,13.88
2022-11-24T12:23:02.877Z,12.52
2022-11-24T12:28:24.097Z,17.23
2022-11-24T12:33:37.407Z,13.48
2022-11-24T12:38:45.613Z,16.02
2022-11-24T12:43:54.801Z,16.05
2022-11-24T12:49:17.418Z,12.43
2022-11-24T12:54:19.795Z,13.38
2022-11-24T12:59:34.571Z,14.95
2022-11-24T13:04:41.871Z,19.17
2022-11-24T13:10:34.657Z,14.15
2022-11-24T13:16:28.480Z,15.20
2022-11-24T13:21:28.249Z,14.43
2022-11-24T13:26:44.695Z,15.25
2022-11-24T13:31:46.252Z,11.90
2022-11-24T13:36:52.258Z,9.57
2022-11-24T13:41:53.622Z,12.57
2022-11-24T13:47:00.176Z,12.98
2022-11-24T13:52:39.610Z,11.52
2022-11-24T13:58:05.018Z,15.30
2022-11-24T14:03:19.647Z,12.80
2022-11-24T14:08:25.591Z,12.95
2022-11-24T14:13:28.603Z,7.95
2022-11-24T14:18:31.522Z,15.07
2022-11-24T14:23:33.006Z,11.13
2022-11-24T14:28:34.587Z,23.15
2022-11-24T14:33:36.350Z,13.38
2022-11-24T14:38:37.828Z,10.05
2022-11-24T14:43:39.293Z,21.63
2022-11-24T14:48:50.722Z,11.95
2022-11-24T14:53:59.877Z,8.88
2022-11-24T14:59:01.354Z,13.27
2022-11-24T15:09:47.496Z,13.52
2022-11-24T15:14:52.436Z,9.23
2022-11-24T15:20:30.322Z,11.35
2022-11-24T15:25:33.327Z,13.50
2022-11-24T15:30:35.576Z,12.43
2022-11-24T15:35:37.060Z,17.77
2022-11-24T15:40:39.047Z,12.50
2022-11-24T15:45:40.502Z,13.55
2022-11-24T15:50:41.977Z,12.10
2022-11-24T15:55:43.484Z,10.68
2022-11-24T16:00:45.357Z,11.45
2022-11-24T16:05:46.888Z,13.07
2022-11-24T16:10:48.354Z,9.95
2022-11-24T16:15:50.017Z,9.38
2022-11-24T16:20:51.604Z,12.68
2022-11-24T16:25:53.068Z,6.15
2022-11-24T16:30:54.571Z,9.88
2022-11-24T16:35:56.065Z,12.00
2022-11-24T16:40:57.544Z,14.35
2022-11-24T16:46:17.597Z,9.00
2022-11-24T16:51:20.624Z,10.35
2022-11-24T16:56:22.084Z,12.60
2022-11-24T17:01:23.694Z,10.95
2022-11-24T17:06:26.748Z,13.48
2022-11-24T17:11:28.412Z,12.55
2022-11-24T17:16:30.128Z,13.35
2022-11-24T17:21:32.136Z,12.93
2022-11-24T17:26:33.688Z,12.18
2022-11-24T17:31:40.033Z,13.18
2022-11-24T17:36:44.570Z,10.55
2022-11-24T17:41:46.118Z,13.68
2022-11-24T17:46:47.578Z,18.08
2022-11-24T17:51:50.471Z,17.40
2022-11-24T17:56:51.989Z,11.38
2022-11-24T18:01:53.495Z,14.98
2022-11-24T18:06:55.049Z,14.18
2022-11-24T18:11:56.514Z,13.73
2022-11-24T18:16:58.048Z,14.43
2022-11-24T18:21:59.576Z,13.40
2022-11-24T18:27:01.036Z,16.70
2022-11-24T18:32:02.587Z,20.52
2022-11-24T18:37:04.341Z,16.95
2022-11-24T18:42:05.828Z,18.58
2022-11-24T18:47:07.293Z,22.23
2022-11-24T18:52:08.780Z,17.23
2022-11-24T18:57:10.270Z,23.27
2022-11-24T19:02:12.261Z,23.98
2022-11-24T19:07:16.913Z,24.88
2022-11-24T19:12:18.457Z,28.13
2022-11-24T19:17:19.977Z,19.02
2022-11-24T19:22:21.748Z,18.10
2022-11-24T19:27:23.234Z,19.02
2022-11-24T19:32:24.720Z,29.30
2022-11-24T19:37:27.726Z,24.02
2022-11-24T19:42:29.203Z,25.40
2022-11-24T19:47:30.669Z,22.58
2022-11-24T19:52:32.135Z,22.52
2022-11-24T19:57:33.616Z,22.65
2022-11-24T20:02:35.131Z,22.60
2022-11-24T20:07:36.769Z,21.90
2022-11-24T20:12:38.250Z,23.23
2022-11-24T20:17:39.726Z,25.65
2022-11-24T20:22:41.524Z,25.02
2022-11-24T20:27:42.992Z,28.33
2022-11-24T20:32:44.469Z,22.83
2022-11-24T20:37:45.929Z,28.13
2022-11-24T20:42:47.383Z,20.38
2022-11-24T20:47:48.850Z,21.00
2022-11-24T20:52:50.323Z,23.92
2022-11-24T20:57:51.785Z,25.88
2022-11-24T21:02:53.313Z,23.67
2022-11-24T21:07:54.871Z,21.25
2022-11-24T21:12:56.408Z,19.25
2022-11-24T21:17:57.928Z,15.90
2022-11-24T21:22:59.393Z,30.48
2022-11-24T21:28:00.862Z,21.33
2022-11-24T21:33:05.401Z,22.95
2022-11-24T21:38:06.854Z,20.42
2022-11-24T21:43:08.904Z,21.85
2022-11-24T21:48:10.365Z,20.70
2022-11-24T21:53:11.824Z,22.92
2022-11-24T21:58:13.844Z,17.65
2022-11-24T22:03:15.317Z,22.98
2022-11-24T22:08:16.776Z,20.27
2022-11-24T22:13:18.340Z,23.15
2022-11-24T22:18:19.824Z,20.02
2022-11-24T22:23:21.274Z,14.40
2022-11-24T22:28:22.732Z,21.80
2022-11-24T22:33:24.185Z,20.58
2022-11-24T22:38:25.804Z,14.98
2022-11-24T22:43:27.261Z,18.20
2022-11-24T22:48:28.723Z,28.67
2022-11-24T22:53:30.423Z,17.83
2022-11-24T22:58:32.164Z,16.00
2022-11-24T23:03:34.353Z,23.52
2022-11-24T23:08:35.908Z,18.15
2022-11-24T23:13:37.378Z,24.70
2022-11-24T23:18:38.918Z,22.20
2022-11-24T23:23:40.452Z,28.90
2022-11-24T23:28:43.067Z,22.02
2022-11-24T23:33:44.596Z,21.50
2022-11-24T23:38:46.357Z,18.92
2022-11-24T23:43:47.835Z,26.50
2022-11-24T23:48:49.730Z,18.85
2022-11-24T23:53:51.266Z,19.60
2022-11-24T23:58:52.778Z,18.15
